createdAt,value
2023-04-14T00:00:42.403Z,1.20
2023-04-14T00:01:45.404Z,1.25
2023-04-14T00:02:48.012Z,1.42
2023-04-14T00:03:50.660Z,1.20
2023-04-14T00:04:54.350Z,1.30
2023-04-14T00:05:56.998Z,1.95
2023-04-14T00:07:00.187Z,1.50
2023-04-14T00:08:02.858Z,1.50
2023-04-14T00:09:05.528Z,1.42
2023-04-14T00:10:11.512Z,1.60
2023-04-14T00:11:14.175Z,1.23
2023-04-14T00:12:16.530Z,1.52
2023-04-14T00:13:18.896Z,15.20
2023-04-14T00:14:21.281Z,57.67
2023-04-14T00:15:23.767Z,39.05
2023-04-14T00:16:26.180Z,22.67
2023-04-14T00:17:28.677Z,13.45
2023-04-14T00:18:31.173Z,10.30
2023-04-14T00:19:35.987Z,7.18
2023-04-14T00:20:38.547Z,6.18
2023-04-14T00:21:43.098Z,5.25
2023-04-14T00:22:45.611Z,4.38
2023-04-14T00:23:48.173Z,3.92
2023-04-14T00:24:50.787Z,3.38
2023-04-14T00:25:53.189Z,3.35
2023-04-14T00:26:56.899Z,2.92
2023-04-14T00:27:59.442Z,2.85
2023-04-14T00:29:02.129Z,2.58
2023-04-14T00:30:05.453Z,2.78
2023-04-14T00:31:11.240Z,2.65
2023-04-14T00:32:13.685Z,2.25
2023-04-14T00:33:16.092Z,2.58
2023-04-14T00:34:18.521Z,2.58
2023-04-14T00:35:21.417Z,2.20
2023-04-14T00:36:23.785Z,2.55
2023-04-14T00:37:27.211Z,2.20
2023-04-14T00:38:29.635Z,2.10
2023-04-14T00:39:32.276Z,2.45
2023-04-14T00:40:35.402Z,2.03
2023-04-14T00:41:37.898Z,1.77
2023-04-14T00:42:47.404Z,1.67
2023-04-14T00:43:54.050Z,2.08
2023-04-14T00:44:56.453Z,1.77
2023-04-14T00:45:58.976Z,1.85
2023-04-14T00:47:02.288Z,1.50
2023-04-14T00:48:04.695Z,2.30
2023-04-14T00:49:07.469Z,1.58
2023-04-14T00:50:10.811Z,4.00
2023-04-14T00:51:13.690Z,70.65
2023-04-14T00:52:19.336Z,80.95
2023-04-14T00:53:22.082Z,54.85
2023-04-14T00:54:26.640Z,31.17
2023-04-14T00:55:29.770Z,23.35
2023-04-14T00:56:32.223Z,18.13
2023-04-14T00:57:35.394Z,15.85
2023-04-14T00:58:39.029Z,12.45
2023-04-14T00:59:41.452Z,10.40
2023-04-14T01:00:44.246Z,8.15
2023-04-14T01:01:47.410Z,7.60
2023-04-14T01:02:50.468Z,7.57
2023-04-14T01:03:55.915Z,6.35
2023-04-14T01:04:58.890Z,5.80
2023-04-14T01:06:01.584Z,5.05
2023-04-14T01:07:04.183Z,4.78
2023-04-14T01:08:06.789Z,4.30
2023-04-14T01:09:10.189Z,4.40
2023-04-14T01:10:12.739Z,4.40
2023-04-14T01:11:36.335Z,4.18
2023-04-14T01:12:56.118Z,4.35
2023-04-14T01:14:36.448Z,4.03
2023-04-14T01:15:41.366Z,3.85
2023-04-14T01:16:45.654Z,3.00
2023-04-14T01:18:21.854Z,3.00
2023-04-14T01:19:43.157Z,2.88
2023-04-14T01:20:50.334Z,2.83
2023-04-14T01:22:03.376Z,3.20
2023-04-14T01:23:12.763Z,2.90
2023-04-14T01:24:29.454Z,2.80
2023-04-14T01:25:53.539Z,2.40
2023-04-14T01:27:27.506Z,2.65
2023-04-14T01:29:00.099Z,2.63
2023-04-14T01:30:52.364Z,2.28
2023-04-14T01:32:10.261Z,2.00
2023-04-14T01:33:18.382Z,2.20
2023-04-14T01:34:29.394Z,1.95
2023-04-14T01:35:44.331Z,2.10
2023-04-14T01:37:04.157Z,2.00
2023-04-14T01:38:17.834Z,1.85
2023-04-14T01:39:24.882Z,2.28
2023-04-14T01:40:29.410Z,1.50
2023-04-14T01:41:34.244Z,1.67
2023-04-14T01:42:42.996Z,2.10
2023-04-14T01:43:48.806Z,1.55
2023-04-14T01:44:56.706Z,1.58
2023-04-14T01:46:04.990Z,1.70
2023-04-14T01:47:12.634Z,1.67
2023-04-14T01:48:16.766Z,1.52
2023-04-14T01:49:22.175Z,1.92
2023-04-14T01:50:26.369Z,1.67
2023-04-14T01:51:32.345Z,1.30
2023-04-14T01:52:37.477Z,1.60
2023-04-14T01:53:42.876Z,1.15
2023-04-14T01:54:51.059Z,1.52
2023-04-14T01:55:56.072Z,1.48
2023-04-14T01:57:01.798Z,1.30
2023-04-14T01:58:06.939Z,1.38
2023-04-14T01:59:11.938Z,1.73
2023-04-14T02:00:17.252Z,1.48
2023-04-14T02:01:20.149Z,1.40
2023-04-14T02:02:24.552Z,1.50
2023-04-14T02:03:27.890Z,1.83
2023-04-14T02:04:32.778Z,1.58
2023-04-14T02:05:38.713Z,2.05
2023-04-14T02:06:42.461Z,1.55
2023-04-14T02:07:46.902Z,1.50
2023-04-14T02:08:50.981Z,1.63
2023-04-14T02:09:55.328Z,1.60
2023-04-14T02:10:59.026Z,1.65
2023-04-14T02:12:08.017Z,1.52
2023-04-14T02:13:12.067Z,1.40
2023-04-14T02:14:16.510Z,1.52
2023-04-14T02:15:22.342Z,1.52
2023-04-14T02:16:26.243Z,1.50
2023-04-14T02:17:30.028Z,1.60
2023-04-14T02:18:33.357Z,1.30
2023-04-14T02:19:37.060Z,1.40
2023-04-14T02:20:44.804Z,1.55
2023-04-14T02:21:49.505Z,1.52
2023-04-14T02:22:51.968Z,1.30
2023-04-14T02:23:54.325Z,1.23
2023-04-14T02:24:56.702Z,1.42
2023-04-14T02:26:07.791Z,1.25
2023-04-14T02:27:18.830Z,1.30
2023-04-14T02:28:27.956Z,0.98
2023-04-14T02:29:32.563Z,1.25
2023-04-14T02:30:44.140Z,1.30
2023-04-14T02:31:56.710Z,0.98
2023-04-14T02:33:05.940Z,1.10
2023-04-14T02:34:11.298Z,1.25
2023-04-14T02:35:39.766Z,1.20
2023-04-14T02:37:09.480Z,1.17
2023-04-14T02:38:20.872Z,1.30
2023-04-14T02:50:29.288Z,26.23
2023-04-14T02:51:41.452Z,63.10
2023-04-14T02:52:51.354Z,228.85
2023-04-14T02:53:56.760Z,180.40
2023-04-14T02:55:12.541Z,130.98
2023-04-14T02:56:15.739Z,95.03
2023-04-14T02:57:21.829Z,85.05
2023-04-14T02:58:27.332Z,75.35
2023-04-14T02:59:32.252Z,65.35
2023-04-14T03:00:40.341Z,55.75
2023-04-14T03:01:45.486Z,50.92
2023-04-14T03:02:49.406Z,45.88
2023-04-14T03:03:56.086Z,44.10
2023-04-14T03:05:00.699Z,42.55
2023-04-14T03:06:19.539Z,41.40
2023-04-14T03:07:23.321Z,35.15
2023-04-14T03:08:27.932Z,33.90
2023-04-14T03:09:31.955Z,34.20
2023-04-14T03:10:35.399Z,31.90
2023-04-14T03:11:39.794Z,30.77
2023-04-14T03:12:45.058Z,31.08
2023-04-14T03:13:53.243Z,29.15
2023-04-14T03:14:56.549Z,29.85
2023-04-14T03:15:59.615Z,30.23
2023-04-14T03:17:04.362Z,29.88
2023-04-14T03:18:07.616Z,29.27
2023-04-14T03:19:12.542Z,27.10
2023-04-14T03:20:21.749Z,27.92
2023-04-14T03:21:25.273Z,27.33
2023-04-14T03:22:28.868Z,26.23
2023-04-14T03:23:34.251Z,27.88
2023-04-14T03:24:42.479Z,27.27
2023-04-14T03:25:46.599Z,26.30
2023-04-14T03:27:03.022Z,26.70
2023-04-14T03:28:10.669Z,26.15
2023-04-14T03:29:19.944Z,26.65
2023-04-14T03:30:26.157Z,24.88
2023-04-14T03:31:34.018Z,26.45
2023-04-14T03:32:42.917Z,24.20
2023-04-14T03:33:55.693Z,23.45
2023-04-14T03:36:04.663Z,22.65
2023-04-14T03:37:09.182Z,24.23
2023-04-14T03:38:16.233Z,24.02
2023-04-14T03:39:24.833Z,21.58
2023-04-14T03:40:31.731Z,22.77
2023-04-14T03:41:40.153Z,20.80
2023-04-14T03:42:46.164Z,146.07
2023-04-14T03:43:56.847Z,81.28
2023-04-14T03:45:00.721Z,43.88
2023-04-14T03:46:05.696Z,43.70
2023-04-14T03:47:10.568Z,32.90
2023-04-14T03:48:18.483Z,28.08
2023-04-14T03:49:25.595Z,26.48
2023-04-14T03:50:32.100Z,26.48
2023-04-14T03:51:36.564Z,23.20
2023-04-14T03:52:45.566Z,25.30
2023-04-14T03:53:52.716Z,28.40
2023-04-14T03:54:59.553Z,30.33
2023-04-14T03:56:04.625Z,30.42
2023-04-14T03:57:10.671Z,31.70
2023-04-14T03:58:15.859Z,32.15
2023-04-14T03:59:20.081Z,197.75
2023-04-14T04:00:23.904Z,96.40
2023-04-14T04:01:27.898Z,80.97
2023-04-14T04:02:33.053Z,77.28
2023-04-14T04:03:39.117Z,66.40
2023-04-14T04:04:43.422Z,52.58
2023-04-14T04:05:46.208Z,44.95
2023-04-14T04:06:50.097Z,42.70
2023-04-14T04:07:53.658Z,42.95
2023-04-14T04:08:57.746Z,40.22
2023-04-14T04:10:00.708Z,40.80
2023-04-14T04:11:07.378Z,41.50
2023-04-14T04:12:10.893Z,40.85
2023-04-14T04:13:17.646Z,39.45
2023-04-14T04:14:25.639Z,39.80
2023-04-14T04:15:32.994Z,39.58
2023-04-14T04:16:38.645Z,38.10
2023-04-14T04:17:44.600Z,38.38
2023-04-14T04:18:49.056Z,38.35
2023-04-14T04:19:57.167Z,36.58
2023-04-14T04:21:02.388Z,35.10
2023-04-14T04:22:07.667Z,35.72
2023-04-14T04:23:12.373Z,35.97
2023-04-14T04:24:18.773Z,36.22
2023-04-14T04:25:21.436Z,34.08
2023-04-14T04:26:36.557Z,34.50
2023-04-14T04:27:39.161Z,32.42
2023-04-14T04:28:49.199Z,32.40
2023-04-14T04:29:52.350Z,32.90
2023-04-14T04:30:59.141Z,33.40
2023-04-14T04:32:01.989Z,32.95
2023-04-14T04:33:06.347Z,31.25
2023-04-14T04:34:09.809Z,31.05
2023-04-14T04:35:15.383Z,31.35
2023-04-14T04:36:21.640Z,30.25
2023-04-14T04:37:28.643Z,29.60
2023-04-14T04:38:32.102Z,30.08
2023-04-14T04:39:34.820Z,29.85
2023-04-14T04:40:41.262Z,29.25
2023-04-14T04:42:06.612Z,29.92
2023-04-14T04:43:09.345Z,31.13
2023-04-14T04:44:11.886Z,28.42
2023-04-14T04:45:36.440Z,28.90
2023-04-14T04:46:54.791Z,29.98
2023-04-14T04:48:04.371Z,29.20
2023-04-14T04:49:10.310Z,26.27
2023-04-14T04:50:13.634Z,26.17
2023-04-14T04:51:17.955Z,41.85
2023-04-14T04:52:20.418Z,29.48
2023-04-14T04:53:22.955Z,34.13
2023-04-14T04:54:27.314Z,46.13
2023-04-14T04:55:29.816Z,46.38
2023-04-14T04:56:33.587Z,35.92
2023-04-14T04:57:36.316Z,32.75
2023-04-14T04:58:38.778Z,31.02
2023-04-14T04:59:41.580Z,31.27
2023-04-14T05:00:44.094Z,30.23
2023-04-14T05:01:46.769Z,30.30
2023-04-14T05:02:53.498Z,31.70
2023-04-14T05:03:56.315Z,29.33
2023-04-14T05:05:00.380Z,31.13
2023-04-14T05:06:04.756Z,30.40
2023-04-14T05:07:09.027Z,30.30
2023-04-14T05:08:14.435Z,31.25
2023-04-14T05:09:19.159Z,30.73
2023-04-14T05:10:25.563Z,29.92
2023-04-14T05:11:28.711Z,31.15
2023-04-14T05:12:31.427Z,30.95
2023-04-14T05:13:34.199Z,31.40
2023-04-14T05:14:36.929Z,30.83
2023-04-14T05:15:39.996Z,30.48
2023-04-14T05:16:42.551Z,29.70
2023-04-14T05:17:45.120Z,31.10
2023-04-14T05:18:47.730Z,28.60
2023-04-14T05:19:50.710Z,29.45
2023-04-14T05:20:54.236Z,29.27
2023-04-14T05:21:58.539Z,29.35
2023-04-14T05:23:01.486Z,28.45
2023-04-14T05:24:04.693Z,30.30
2023-04-14T05:25:07.957Z,30.65
2023-04-14T05:27:19.045Z,28.75
2023-04-14T05:28:21.389Z,28.75
2023-04-14T05:29:23.911Z,28.83
2023-04-14T05:30:26.573Z,28.55
2023-04-14T05:31:29.124Z,28.00
2023-04-14T05:32:32.137Z,27.92
2023-04-14T05:33:35.396Z,28.88
2023-04-14T05:34:37.995Z,27.27
2023-04-14T05:35:40.573Z,27.73
2023-04-14T05:36:43.184Z,28.25
2023-04-14T05:37:45.995Z,26.65
2023-04-14T05:38:48.472Z,28.63
2023-04-14T05:39:51.069Z,26.73
2023-04-14T05:40:53.737Z,27.85
2023-04-14T05:41:56.816Z,28.13
2023-04-14T05:42:59.746Z,27.85
2023-04-14T05:44:04.058Z,25.85
2023-04-14T05:45:07.507Z,27.02
2023-04-14T05:46:13.560Z,27.65
2023-04-14T05:47:16.827Z,27.25
2023-04-14T05:48:19.224Z,27.33
2023-04-14T05:49:22.020Z,26.88
2023-04-14T05:50:24.422Z,15.95
2023-04-14T05:51:27.847Z,12.93
2023-04-14T05:52:30.410Z,16.50
2023-04-14T05:53:32.807Z,19.90
2023-04-14T05:54:35.336Z,19.25
2023-04-14T05:55:39.910Z,21.70
2023-04-14T05:56:42.776Z,19.67
2023-04-14T05:57:46.964Z,20.10
2023-04-14T05:58:54.136Z,20.10
2023-04-14T05:59:58.187Z,21.73
2023-04-14T06:01:01.003Z,22.88
2023-04-14T06:02:07.415Z,21.52
2023-04-14T06:03:10.424Z,22.90
2023-04-14T06:04:15.316Z,21.13
2023-04-14T06:05:18.596Z,21.83
2023-04-14T06:06:21.192Z,22.42
2023-04-14T06:07:24.205Z,21.67
2023-04-14T06:08:26.690Z,22.52
2023-04-14T06:09:29.047Z,22.63
2023-04-14T06:10:32.180Z,21.88
2023-04-14T06:11:34.687Z,22.48
2023-04-14T06:12:39.893Z,22.40
2023-04-14T06:13:42.234Z,21.63
2023-04-14T06:14:44.573Z,23.65
2023-04-14T06:15:50.178Z,21.17
2023-04-14T06:16:58.560Z,21.95
2023-04-14T06:18:01.318Z,22.42
2023-04-14T06:19:04.762Z,22.35
2023-04-14T06:20:08.989Z,22.30
2023-04-14T06:21:12.203Z,24.00
2023-04-14T06:22:19.875Z,23.83
2023-04-14T06:23:24.725Z,22.17
2023-04-14T06:24:27.220Z,21.58
2023-04-14T06:25:34.613Z,21.48
2023-04-14T06:26:37.660Z,21.25
2023-04-14T06:27:40.413Z,21.33
2023-04-14T06:28:43.926Z,21.85
2023-04-14T06:29:46.757Z,22.25
2023-04-14T06:30:49.284Z,21.17
2023-04-14T06:31:51.963Z,27.30
2023-04-14T06:32:55.110Z,23.60
2023-04-14T06:33:57.558Z,27.92
2023-04-14T06:34:59.919Z,27.85
2023-04-14T06:36:02.929Z,23.90
2023-04-14T06:37:05.658Z,25.25
2023-04-14T06:38:10.320Z,15.93
2023-04-14T06:39:13.456Z,16.75
2023-04-14T06:40:15.929Z,13.07
2023-04-14T06:41:18.833Z,12.50
2023-04-14T06:42:21.749Z,11.43
2023-04-14T06:43:24.172Z,13.88
2023-04-14T06:44:26.673Z,18.00
2023-04-14T06:45:29.807Z,17.58
2023-04-14T06:46:36.559Z,18.67
2023-04-14T06:47:39.550Z,18.15
2023-04-14T06:48:41.966Z,17.98
2023-04-14T06:49:44.610Z,17.80
2023-04-14T06:50:54.736Z,18.60
2023-04-14T06:51:57.112Z,20.67
2023-04-14T06:52:59.460Z,40.63
2023-04-14T06:54:02.109Z,19.42
2023-04-14T06:55:05.060Z,21.00
2023-04-14T06:56:08.204Z,13.95
2023-04-14T06:57:10.564Z,14.25
2023-04-14T06:58:13.048Z,12.10
2023-04-14T06:59:15.359Z,16.02
2023-04-14T07:00:18.006Z,15.85
2023-04-14T07:01:20.459Z,15.13
2023-04-14T07:02:23.893Z,15.20
2023-04-14T07:03:28.343Z,16.58
2023-04-14T07:04:30.781Z,17.42
2023-04-14T07:05:33.199Z,17.42
2023-04-14T07:06:36.045Z,17.60
2023-04-14T07:07:40.299Z,17.58
2023-04-14T07:08:43.593Z,19.33
2023-04-14T07:09:46.014Z,17.25
2023-04-14T07:10:48.479Z,17.38
2023-04-14T07:11:53.037Z,18.50
2023-04-14T07:12:56.524Z,17.88
2023-04-14T07:13:59.083Z,16.63
2023-04-14T07:15:01.841Z,16.77
2023-04-14T07:16:06.576Z,16.98
2023-04-14T07:17:18.919Z,16.27
2023-04-14T07:18:22.381Z,15.18
2023-04-14T07:19:24.845Z,15.70
2023-04-14T07:20:27.458Z,15.95
2023-04-14T07:21:29.871Z,17.27
2023-04-14T07:22:33.305Z,16.80
2023-04-14T07:23:35.785Z,15.18
2023-04-14T07:24:38.693Z,15.85
2023-04-14T07:25:41.079Z,17.45
2023-04-14T07:26:44.506Z,15.32
2023-04-14T07:28:00.363Z,14.85
2023-04-14T07:29:08.237Z,15.85
2023-04-14T07:30:11.567Z,14.90
2023-04-14T07:31:15.033Z,16.17
2023-04-14T07:32:17.485Z,16.42
2023-04-14T07:33:22.169Z,17.30
2023-04-14T07:34:24.721Z,14.43
2023-04-14T07:35:27.277Z,23.73
2023-04-14T07:36:32.755Z,15.63
2023-04-14T07:37:35.206Z,13.43
2023-04-14T07:38:37.632Z,25.52
2023-04-14T07:39:40.687Z,23.00
2023-04-14T07:40:43.134Z,17.45
2023-04-14T07:41:45.721Z,22.42
2023-04-14T07:42:48.163Z,17.13
2023-04-14T07:43:50.812Z,17.88
2023-04-14T07:44:53.750Z,16.92
2023-04-14T07:45:56.401Z,16.85
2023-04-14T07:46:59.102Z,17.65
2023-04-14T07:48:01.866Z,17.67
2023-04-14T07:49:04.805Z,15.38
2023-04-14T07:50:12.665Z,17.20
2023-04-14T07:51:15.497Z,16.85
2023-04-14T07:52:18.340Z,15.30
2023-04-14T07:53:21.417Z,16.02
2023-04-14T07:54:24.499Z,16.45
2023-04-14T07:55:27.593Z,15.70
2023-04-14T07:56:30.688Z,15.85
2023-04-14T07:57:36.122Z,16.02
2023-04-14T07:58:40.240Z,14.60
2023-04-14T07:59:43.094Z,14.80
2023-04-14T08:00:46.011Z,15.88
2023-04-14T08:01:48.686Z,14.30
2023-04-14T08:02:51.476Z,14.85
2023-04-14T08:03:54.433Z,14.70
2023-04-14T08:04:57.633Z,14.70
2023-04-14T08:06:00.513Z,14.90
2023-04-14T08:07:02.995Z,15.10
2023-04-14T08:08:05.898Z,14.50
2023-04-14T08:09:08.425Z,14.43
2023-04-14T08:10:11.095Z,14.18
2023-04-14T08:11:13.964Z,15.00
2023-04-14T08:12:16.700Z,14.65
2023-04-14T08:13:22.182Z,14.50
2023-04-14T08:14:25.739Z,13.45
2023-04-14T08:15:28.288Z,14.45
2023-04-14T08:16:31.101Z,15.40
2023-04-14T08:17:36.332Z,14.05
2023-04-14T08:18:41.288Z,14.38
2023-04-14T08:19:43.826Z,13.98
2023-04-14T08:20:46.399Z,11.15
2023-04-14T08:21:48.875Z,8.50
2023-04-14T08:22:53.426Z,6.70
2023-04-14T08:23:56.059Z,6.30
2023-04-14T08:24:58.653Z,8.32
2023-04-14T08:26:01.488Z,6.72
2023-04-14T08:27:06.448Z,5.40
2023-04-14T08:28:11.432Z,5.60
2023-04-14T08:29:14.221Z,5.53
2023-04-14T08:30:16.795Z,5.90
2023-04-14T08:31:20.305Z,5.57
2023-04-14T08:32:30.970Z,6.10
2023-04-14T08:33:34.051Z,7.18
2023-04-14T08:34:38.012Z,7.25
2023-04-14T08:35:44.539Z,20.83
2023-04-14T08:36:51.849Z,24.42
2023-04-14T08:37:56.810Z,23.70
2023-04-14T08:39:02.058Z,19.98
2023-04-14T08:40:09.098Z,19.75
2023-04-14T08:41:14.673Z,20.15
2023-04-14T08:42:17.387Z,17.00
2023-04-14T08:43:20.666Z,16.40
2023-04-14T08:44:23.202Z,14.73
2023-04-14T08:45:26.095Z,13.50
2023-04-14T08:46:29.346Z,14.07
2023-04-14T08:47:35.334Z,12.77
2023-04-14T08:48:39.080Z,12.82
2023-04-14T08:49:46.214Z,11.77
2023-04-14T08:51:05.297Z,12.90
2023-04-14T08:52:13.732Z,13.68
2023-04-14T08:53:18.371Z,10.88
2023-04-14T08:54:21.546Z,9.13
2023-04-14T08:55:25.316Z,7.70
2023-04-14T08:56:33.409Z,9.95
2023-04-14T08:57:36.645Z,10.38
2023-04-14T08:58:39.506Z,8.32
2023-04-14T08:59:42.344Z,10.15
2023-04-14T09:00:45.853Z,7.97
2023-04-14T09:01:50.118Z,6.78
2023-04-14T09:02:54.397Z,6.55
2023-04-14T09:03:57.991Z,5.65
2023-04-14T09:05:01.313Z,5.78
2023-04-14T09:06:05.281Z,5.88
2023-04-14T09:07:07.760Z,6.28
2023-04-14T09:08:11.210Z,5.45
2023-04-14T09:09:13.873Z,4.28
2023-04-14T09:10:17.115Z,5.53
2023-04-14T09:11:19.861Z,6.05
2023-04-14T09:12:24.131Z,5.10
2023-04-14T09:13:28.374Z,3.95
2023-04-14T09:14:30.961Z,2.88
2023-04-14T09:15:33.627Z,3.97
2023-04-14T09:16:37.678Z,3.78
2023-04-14T09:17:40.473Z,3.25
2023-04-14T09:18:43.812Z,3.72
2023-04-14T09:20:36.046Z,4.55
2023-04-14T09:21:32.985Z,40.20
2023-04-14T09:22:35.732Z,25.77
2023-04-14T09:23:41.713Z,16.42
2023-04-14T09:24:44.452Z,15.98
2023-04-14T09:25:46.971Z,27.17
2023-04-14T09:26:50.386Z,22.05
2023-04-14T09:27:53.788Z,51.60
2023-04-14T09:28:56.844Z,19.75
2023-04-14T09:30:00.210Z,37.10
2023-04-14T09:31:04.759Z,20.73
2023-04-14T09:32:09.393Z,12.38
2023-04-14T09:33:23.154Z,8.27
2023-04-14T09:34:26.660Z,7.75
2023-04-14T09:35:55.542Z,6.22
2023-04-14T09:37:09.694Z,6.13
2023-04-14T09:38:12.194Z,4.95
2023-04-14T09:39:17.926Z,5.68
2023-04-14T09:40:30.246Z,7.47
2023-04-14T09:41:32.751Z,9.80
2023-04-14T09:42:42.780Z,6.88
2023-04-14T09:43:49.601Z,5.47
2023-04-14T09:44:59.352Z,5.68
2023-04-14T09:46:07.599Z,4.95
2023-04-14T09:47:15.564Z,3.78
2023-04-14T09:48:19.475Z,3.38
2023-04-14T09:49:21.896Z,4.22
2023-04-14T09:50:25.294Z,4.55
2023-04-14T09:51:30.257Z,30.55
2023-04-14T09:52:44.544Z,21.17
2023-04-14T09:53:48.689Z,12.57
2023-04-14T09:54:56.211Z,20.52
2023-04-14T09:56:02.627Z,13.93
2023-04-14T09:57:06.275Z,19.42
2023-04-14T09:58:10.666Z,14.77
2023-04-14T09:59:13.631Z,16.95
2023-04-14T10:00:16.016Z,9.50
2023-04-14T10:01:27.795Z,8.30
2023-04-14T10:02:30.756Z,7.28
2023-04-14T10:03:39.513Z,5.00
2023-04-14T10:04:42.516Z,4.55
2023-04-14T10:05:48.040Z,3.80
2023-04-14T10:06:50.457Z,2.90
2023-04-14T10:07:52.882Z,3.75
2023-04-14T10:08:56.115Z,3.90
2023-04-14T10:10:06.877Z,3.72
2023-04-14T10:11:35.218Z,3.65
2023-04-14T10:12:37.944Z,4.03
2023-04-14T10:13:40.521Z,3.38
2023-04-14T10:14:44.008Z,3.13
2023-04-14T10:15:46.665Z,2.90
2023-04-14T10:16:49.026Z,3.35
2023-04-14T10:17:51.546Z,3.08
2023-04-14T10:18:55.241Z,3.03
2023-04-14T10:19:58.084Z,2.60
2023-04-14T10:21:03.301Z,3.20
2023-04-14T10:22:06.376Z,2.83
2023-04-14T10:23:09.900Z,2.15
2023-04-14T10:24:12.869Z,2.78
2023-04-14T10:25:16.344Z,3.35
2023-04-14T10:26:20.043Z,3.08
2023-04-14T10:27:22.832Z,2.03
2023-04-14T10:28:28.649Z,2.50
2023-04-14T10:29:31.518Z,2.90
2023-04-14T10:30:34.243Z,3.03
2023-04-14T10:31:40.346Z,2.58
2023-04-14T10:32:47.185Z,2.30
2023-04-14T10:33:49.805Z,2.70
2023-04-14T10:35:05.836Z,2.20
2023-04-14T10:36:09.376Z,2.30
2023-04-14T10:37:16.137Z,1.80
2023-04-14T10:38:19.808Z,31.25
2023-04-14T10:39:27.630Z,29.55
2023-04-14T10:40:46.291Z,24.33
2023-04-14T10:41:50.238Z,31.30
2023-04-14T10:42:56.449Z,46.03
2023-04-14T10:43:59.037Z,36.47
2023-04-14T10:45:05.858Z,19.27
2023-04-14T10:46:12.500Z,13.13
2023-04-14T10:47:24.875Z,13.20
2023-04-14T10:48:33.481Z,9.40
2023-04-14T10:49:38.888Z,9.13
2023-04-14T10:50:48.871Z,8.10
2023-04-14T10:51:52.120Z,6.88
2023-04-14T10:52:56.283Z,6.43
2023-04-14T10:54:03.411Z,5.28
2023-04-14T10:55:09.938Z,4.38
2023-04-14T10:56:13.157Z,4.15
2023-04-14T10:57:15.669Z,4.55
2023-04-14T10:58:20.506Z,3.80
2023-04-14T10:59:24.000Z,3.40
2023-04-14T11:00:31.945Z,3.80
2023-04-14T11:01:36.498Z,3.15
2023-04-14T11:02:39.054Z,3.40
2023-04-14T11:03:45.161Z,3.53
2023-04-14T11:05:12.151Z,3.67
2023-04-14T11:06:47.456Z,3.13
2023-04-14T11:08:00.676Z,3.08
2023-04-14T11:09:25.349Z,3.13
2023-04-14T11:10:30.988Z,2.30
2023-04-14T11:11:34.037Z,1.83
2023-04-14T11:12:43.108Z,2.22
2023-04-14T11:14:05.942Z,2.92
2023-04-14T11:15:09.843Z,2.53
2023-04-14T11:16:12.724Z,2.63
2023-04-14T11:17:22.844Z,2.78
2023-04-14T11:18:37.434Z,2.55
2023-04-14T11:19:40.869Z,2.50
2023-04-14T11:20:43.937Z,2.78
2023-04-14T11:21:50.178Z,3.08
2023-04-14T11:22:55.084Z,2.40
2023-04-14T11:23:59.307Z,2.72
2023-04-14T11:25:02.480Z,3.05
2023-04-14T11:26:06.701Z,2.47
2023-04-14T11:27:11.792Z,2.33
2023-04-14T11:28:14.438Z,2.38
2023-04-14T11:29:17.648Z,1.73
2023-04-14T11:30:21.465Z,1.85
2023-04-14T11:31:27.583Z,1.73
2023-04-14T11:32:32.080Z,1.55
2023-04-14T11:33:37.074Z,2.15
2023-04-14T11:34:39.535Z,1.98
2023-04-14T11:35:42.397Z,2.22
2023-04-14T11:36:44.864Z,2.15
2023-04-14T11:37:47.584Z,1.90
2023-04-14T11:38:50.069Z,2.13
2023-04-14T11:39:52.448Z,1.92
2023-04-14T11:40:56.444Z,2.28
2023-04-14T11:42:01.892Z,1.50
2023-04-14T11:43:06.673Z,1.70
2023-04-14T11:44:10.116Z,1.70
2023-04-14T11:45:15.773Z,1.98
2023-04-14T11:46:22.376Z,1.23
2023-04-14T11:47:24.978Z,1.50
2023-04-14T11:48:29.201Z,1.50
2023-04-14T11:49:37.738Z,1.73
2023-04-14T11:50:41.315Z,1.17
2023-04-14T11:51:43.667Z,1.48
2023-04-14T11:52:46.801Z,1.30
2023-04-14T11:53:49.206Z,1.30
2023-04-14T11:54:51.812Z,1.38
2023-04-14T11:55:54.469Z,1.38
2023-04-14T11:56:56.918Z,1.45
2023-04-14T11:58:00.205Z,1.30
2023-04-14T11:59:04.875Z,1.23
2023-04-14T12:00:08.961Z,1.13
2023-04-14T12:01:14.409Z,1.50
2023-04-14T12:02:21.914Z,1.70
2023-04-14T12:03:29.485Z,1.77
2023-04-14T12:04:32.578Z,1.63
2023-04-14T12:05:35.737Z,1.13
2023-04-14T12:06:39.414Z,1.63
2023-04-14T12:07:45.754Z,1.02
2023-04-14T12:08:56.878Z,1.50
2023-04-14T12:09:59.563Z,1.10
2023-04-14T12:11:15.697Z,1.42
2023-04-14T12:12:20.268Z,1.10
2023-04-14T12:13:23.390Z,1.40
2023-04-14T12:14:26.750Z,1.10
2023-04-14T12:15:36.588Z,1.02
2023-04-14T12:16:39.257Z,1.00
2023-04-14T12:17:42.693Z,0.90
2023-04-14T12:18:45.544Z,1.02
2023-04-14T12:19:49.042Z,1.20
2023-04-14T12:20:56.216Z,0.85
2023-04-14T12:21:59.581Z,1.00
2023-04-14T12:23:03.147Z,1.30
2023-04-14T12:24:05.867Z,1.23
2023-04-14T12:25:12.758Z,1.40
2023-04-14T12:26:15.438Z,7.10
2023-04-14T12:27:24.622Z,40.60
2023-04-14T12:28:28.907Z,12.50
2023-04-14T12:29:37.189Z,14.98
2023-04-14T12:30:54.137Z,13.20
2023-04-14T12:31:56.824Z,9.45
2023-04-14T12:32:59.381Z,6.82
2023-04-14T12:34:04.185Z,4.78
2023-04-14T12:35:09.168Z,4.00
2023-04-14T12:36:15.280Z,2.85
2023-04-14T12:37:18.336Z,1.80
2023-04-14T12:38:27.533Z,1.80
2023-04-14T12:39:29.949Z,2.03
2023-04-14T12:40:45.913Z,1.52
2023-04-14T12:41:48.949Z,1.77
2023-04-14T12:42:52.052Z,1.50
2023-04-14T12:43:54.537Z,1.85
2023-04-14T12:45:03.066Z,1.40
2023-04-14T12:46:06.898Z,1.30
2023-04-14T12:47:09.492Z,1.20
2023-04-14T12:48:13.429Z,1.42
2023-04-14T12:49:39.857Z,1.50
2023-04-14T12:50:42.534Z,1.55
2023-04-14T12:51:44.832Z,1.20
2023-04-14T12:52:47.570Z,49.90
2023-04-14T12:53:50.531Z,28.70
2023-04-14T12:54:53.479Z,25.60
2023-04-14T12:56:12.158Z,16.65
2023-04-14T12:57:15.110Z,13.00
2023-04-14T12:58:18.254Z,10.98
2023-04-14T12:59:21.054Z,11.65
2023-04-14T13:00:28.842Z,13.07
2023-04-14T13:01:31.587Z,6.28
2023-04-14T13:02:35.351Z,4.97
2023-04-14T13:03:47.781Z,4.93
2023-04-14T13:04:50.438Z,3.72
2023-04-14T13:05:54.927Z,3.00
2023-04-14T13:06:57.428Z,2.60
2023-04-14T13:07:59.802Z,2.65
2023-04-14T13:09:02.447Z,1.92
2023-04-14T13:10:05.865Z,2.30
2023-04-14T13:11:08.291Z,2.10
2023-04-14T13:12:10.768Z,2.95
2023-04-14T13:13:13.149Z,2.50
2023-04-14T13:14:15.506Z,1.92
2023-04-14T13:15:32.600Z,1.55
2023-04-14T13:16:40.356Z,1.73
2023-04-14T13:17:42.863Z,1.33
2023-04-14T13:18:47.180Z,1.50
2023-04-14T13:19:49.632Z,1.70
2023-04-14T13:20:55.886Z,1.70
2023-04-14T13:22:00.563Z,1.30
2023-04-14T13:23:03.012Z,1.17
2023-04-14T13:24:06.998Z,1.30
2023-04-14T13:25:09.559Z,1.13
2023-04-14T13:26:12.983Z,1.50
2023-04-14T13:27:16.493Z,1.30
2023-04-14T13:28:19.060Z,19.33
2023-04-14T13:29:22.120Z,21.15
2023-04-14T13:30:24.526Z,23.20
2023-04-14T13:31:26.894Z,19.95
2023-04-14T13:32:29.436Z,24.30
2023-04-14T13:33:33.158Z,19.75
2023-04-14T13:34:37.201Z,22.77
2023-04-14T13:35:40.137Z,19.85
2023-04-14T13:36:42.652Z,17.10
2023-04-14T13:37:46.272Z,14.50
2023-04-14T13:38:48.808Z,13.25
2023-04-14T13:39:51.360Z,10.32
2023-04-14T13:40:53.850Z,8.35
2023-04-14T13:41:56.496Z,7.72
2023-04-14T13:42:59.013Z,9.10
2023-04-14T13:44:01.401Z,7.13
2023-04-14T13:45:04.176Z,7.30
2023-04-14T13:46:07.030Z,7.13
2023-04-14T13:47:09.762Z,6.65
2023-04-14T13:48:12.518Z,6.10
2023-04-14T13:49:15.019Z,6.57
2023-04-14T13:50:19.439Z,6.53
2023-04-14T13:51:23.595Z,6.25
2023-04-14T13:52:26.244Z,6.07
2023-04-14T13:53:28.675Z,6.53
2023-04-14T13:54:31.077Z,5.38
2023-04-14T13:55:34.593Z,5.80
2023-04-14T13:56:37.100Z,6.78
2023-04-14T13:57:39.616Z,5.88
2023-04-14T13:58:42.125Z,6.47
2023-04-14T13:59:44.771Z,5.43
2023-04-14T14:00:47.230Z,6.25
2023-04-14T14:01:50.574Z,6.22
2023-04-14T14:02:53.250Z,6.25
2023-04-14T14:03:56.034Z,5.75
2023-04-14T14:04:59.521Z,6.35
2023-04-14T14:06:02.023Z,5.68
2023-04-14T14:07:04.498Z,5.60
2023-04-14T14:08:06.964Z,5.20
2023-04-14T14:09:09.656Z,5.30
2023-04-14T14:10:12.531Z,5.95
2023-04-14T14:11:15.007Z,5.85
2023-04-14T14:12:17.551Z,5.85
2023-04-14T14:13:21.716Z,4.80
2023-04-14T14:14:24.321Z,5.47
2023-04-14T14:15:27.060Z,5.78
2023-04-14T14:16:36.679Z,4.70
2023-04-14T14:17:40.839Z,5.90
2023-04-14T14:18:45.113Z,4.85
2023-04-14T14:19:48.205Z,5.20
2023-04-14T14:20:51.010Z,5.15
2023-04-14T14:21:53.354Z,5.30
2023-04-14T14:22:56.090Z,5.15
2023-04-14T14:23:59.192Z,5.10
2023-04-14T14:25:17.859Z,4.50
2023-04-14T14:26:21.463Z,4.82
2023-04-14T14:27:24.380Z,5.07
2023-04-14T14:28:27.634Z,5.28